Weather reports worldwide

Advertisment
Porsgrunn, Norway (1462): temperature & dewpoint: 23.09.2020 06:00:00 - 29.09.2020 06:00:00 (CEST)Porsgrunn, Norway (1462): wind speed & gusts: 23.09.2020 06:00:00 - 29.09.2020 06:00:00 (CEST)Porsgrunn, Norway (1462): wind direction: 23.09.2020 06:00:00 - 29.09.2020 06:00:00 (CEST)Porsgrunn, Norway (1462): precipitation: 23.09.2020 06:00:00 - 29.09.2020 06:00:00 (CEST)
Date & Time tt [°C] td [°C] ff [km/h] ff [kn] fx [km/h] fx [kn] dd rr [mm]
29.09.2020 06:00:00 12,0 11,7 4 2 8 4 N 0,1
29.09.2020 05:00:00 11,9 11,6 4 2 11 6 N 0,0
29.09.2020 04:00:00 11,9 11,6 7 4 12 7 N 0,0
29.09.2020 03:00:00 12,0 11,5 5 3 11 6 NNE 0,0
29.09.2020 02:00:00 12,2 11,3 5 3 14 7 NE 0,0
29.09.2020 01:00:00 12,3 11,4 6 3 12 6 ENE 0,0
29.09.2020 00:00:00 12,4 11,3 5 3 10 5 N 0,0
28.09.2020 23:00:00 12,6 11,2 6 3 11 6 N 0,0
28.09.2020 22:00:00 12,6 10,8 2 1 8 4 NE 0,0
28.09.2020 21:00:00 - - - - 12 6 - -
28.09.2020 20:00:00 12,8 10,7 5 3 12 6 NNE 0,0
28.09.2020 19:00:00 - - - - - - - -
28.09.2020 18:00:00 13,2 10,4 10 5 22 12 E 0,0
28.09.2020 17:00:00 13,4 10,6 11 6 21 12 E 0,0
28.09.2020 16:00:00 - - - - - - - -
28.09.2020 15:00:00 14,3 10,7 12 7 22 12 E 0,1
28.09.2020 14:00:00 14,6 10,8 12 7 22 12 ESE 0,0
28.09.2020 13:00:00 15,3 10,7 9 5 21 11 E 0,0
28.09.2020 12:00:00 14,8 10,4 11 6 24 13 NE 0,0
28.09.2020 11:00:00 13,9 10,3 8 5 24 13 NE 0,0
28.09.2020 10:00:00 13,3 10,3 8 4 18 10 NNE 0,0
28.09.2020 09:00:00 12,4 10,1 11 6 18 10 N 0,0
28.09.2020 08:00:00 11,8 9,9 13 7 27 14 N 0,0
28.09.2020 07:00:00 11,6 9,9 11 6 29 16 N 0,0
28.09.2020 06:00:00 11,6 9,9 10 6 19 10 N 0,0
28.09.2020 05:00:00 11,5 9,9 10 6 20 11 N 0,0
28.09.2020 04:00:00 11,8 10,2 9 5 21 11 N 0,0
28.09.2020 03:00:00 - - - - - - - -
28.09.2020 02:00:00 12,3 10,5 10 6 26 14 N 0,0
28.09.2020 01:00:00 12,2 10,4 10 5 23 12 N 0,0
28.09.2020 00:00:00 12,2 10,6 8 4 26 14 NNE 0,0
27.09.2020 23:00:00 12,3 10,5 12 6 31 17 N 0,0
27.09.2020 22:00:00 12,3 10,5 16 9 26 14 N 0,0
27.09.2020 21:00:00 12,4 10,6 14 7 24 13 N 0,0
27.09.2020 20:00:00 12,4 10,5 9 5 31 17 N 0,0
27.09.2020 19:00:00 12,5 10,4 12 6 29 15 N 0,0
27.09.2020 18:00:00 13,0 10,5 9 5 36 20 N 0,0
27.09.2020 17:00:00 13,5 10,7 14 8 28 15 N 0,0
27.09.2020 16:00:00 13,6 10,6 13 7 29 16 N 0,0
27.09.2020 15:00:00 13,6 10,4 16 8 32 18 N 0,0
27.09.2020 14:00:00 13,1 10,1 15 8 28 15 N 0,0
27.09.2020 13:00:00 12,8 10,0 11 6 29 16 N 0,0
27.09.2020 12:00:00 12,2 9,6 13 7 34 18 N 0,0
27.09.2020 11:00:00 - - - - - - - -
27.09.2020 10:00:00 - - - - - - - -
27.09.2020 09:00:00 10,8 8,6 14 8 29 15 N 0,0
27.09.2020 08:00:00 10,6 8,2 17 9 34 18 N 0,0
27.09.2020 07:00:00 - - - - 36 20 - -
27.09.2020 06:00:00 10,5 7,9 20 11 37 20 N 0,0
27.09.2020 05:00:00 10,4 7,6 15 8 34 18 N 0,0
27.09.2020 04:00:00 10,3 7,7 15 8 36 20 N 0,0
27.09.2020 03:00:00 10,0 7,8 20 11 38 21 N 0,3
27.09.2020 02:00:00 10,5 7,4 20 11 39 21 N 0,0
27.09.2020 01:00:00 10,4 7,6 20 11 39 21 N 0,1
27.09.2020 00:00:00 10,0 7,6 17 9 31 17 NNW 0,0
26.09.2020 23:00:00 - - - - - - - -
26.09.2020 22:00:00 10,0 7,2 17 9 33 18 N 0,0
26.09.2020 21:00:00 9,8 7,2 19 10 42 23 N 0,0
26.09.2020 20:00:00 9,6 6,9 19 10 37 20 N 0,0
26.09.2020 19:00:00 9,2 7,2 16 9 37 20 N 0,0
26.09.2020 18:00:00 9,5 6,8 19 11 40 22 N 0,0
26.09.2020 17:00:00 9,8 6,7 17 9 40 22 N 0,0
26.09.2020 16:00:00 9,6 6,5 16 9 34 19 N 0,0
26.09.2020 15:00:00 9,5 6,4 18 10 37 20 N 0,0
26.09.2020 14:00:00 9,2 6,1 18 10 45 24 N 0,0
26.09.2020 13:00:00 8,6 5,5 22 12 50 27 N 0,0
26.09.2020 12:00:00 8,3 5,4 22 12 48 26 N 0,0
26.09.2020 11:00:00 8,2 5,0 23 12 46 25 N 0,0
26.09.2020 10:00:00 7,8 4,7 26 14 48 26 N 0,0
26.09.2020 09:00:00 7,5 4,6 27 15 56 30 N 0,0
26.09.2020 08:00:00 7,2 4,9 23 12 49 26 N 0,1
26.09.2020 07:00:00 7,1 5,2 24 13 45 25 NNW 0,4
26.09.2020 06:00:00 7,0 5,6 18 10 34 19 NNW 1,3
26.09.2020 05:00:00 7,0 6,0 18 10 37 20 NNW 4,2
26.09.2020 04:00:00 7,2 6,5 16 9 38 20 NW 8,0
26.09.2020 03:00:00 7,7 6,8 22 12 56 30 NNW 6,4
26.09.2020 02:00:00 8,3 7,2 29 16 54 29 N 4,9
26.09.2020 01:00:00 8,9 7,5 25 13 47 25 NNW 2,0
26.09.2020 00:00:00 9,2 8,1 18 10 41 22 N 2,7
25.09.2020 23:00:00 - - - - - - - -
25.09.2020 22:00:00 9,6 8,7 15 8 29 16 N 2,3
25.09.2020 21:00:00 9,7 8,9 16 9 34 18 N 2,8
25.09.2020 20:00:00 9,6 8,8 15 8 29 16 N 2,7
25.09.2020 19:00:00 9,5 8,6 12 6 29 16 N 1,1
25.09.2020 18:00:00 9,7 8,3 12 7 31 17 NNE 0,0
25.09.2020 17:00:00 9,9 7,7 13 7 32 17 NNE 0,0
25.09.2020 16:00:00 10,8 6,4 11 6 28 15 N 0,0
25.09.2020 15:00:00 10,1 6,5 14 7 27 15 N 0,1
25.09.2020 14:00:00 10,6 5,6 14 8 29 16 N 0,0
25.09.2020 13:00:00 10,4 6,9 7 4 14 7 NNW 0,0
25.09.2020 12:00:00 9,3 7,1 8 4 19 10 NNW 0,0
25.09.2020 11:00:00 8,5 6,8 9 5 15 8 NNW 0,0
25.09.2020 10:00:00 7,4 6,5 5 3 19 10 NW 0,0
25.09.2020 09:00:00 6,6 5,7 10 5 19 11 NNW 0,0
25.09.2020 08:00:00 6,2 5,3 11 6 17 9 NNW 0,0
25.09.2020 07:00:00 6,2 5,8 6 3 12 7 NW 0,0
25.09.2020 06:00:00 - - - - 10 5 - -
25.09.2020 05:00:00 7,8 6,4 5 3 10 6 WNW 0,0
25.09.2020 04:00:00 - - - - - - - -
25.09.2020 03:00:00 7,7 6,2 4 2 11 6 SSW 0,0
25.09.2020 02:00:00 7,5 6,0 3 2 10 6 SSE 0,0
25.09.2020 01:00:00 8,1 6,2 4 2 10 5 S 0,0
25.09.2020 00:00:00 7,8 5,8 2 1 16 9 SW 0,0
24.09.2020 23:00:00 9,0 6,1 4 2 18 10 SSW 0,0
24.09.2020 22:00:00 - - - - 24 13 - -
24.09.2020 21:00:00 - - - - - - - -
24.09.2020 20:00:00 10,3 6,5 9 5 30 16 S 0,0
24.09.2020 19:00:00 11,3 6,5 12 6 37 20 SSW 0,0
24.09.2020 18:00:00 12,6 6,9 15 8 53 28 S 0,0
24.09.2020 17:00:00 13,3 6,7 18 10 47 25 S 0,0
24.09.2020 16:00:00 - - - - - - - -
24.09.2020 15:00:00 14,0 10,0 21 12 65 35 S 0,0
24.09.2020 14:00:00 13,8 9,3 26 14 68 37 S 0,0
24.09.2020 13:00:00 14,2 10,6 19 10 54 29 S 0,3
24.09.2020 12:00:00 14,1 13,2 18 10 41 22 SSE 0,7
24.09.2020 11:00:00 14,4 13,3 23 13 54 29 S 0,4
24.09.2020 10:00:00 13,7 13,1 16 9 54 29 SSE 3,6
24.09.2020 09:00:00 14,5 14,2 23 12 45 25 SE 4,5
24.09.2020 08:00:00 14,7 14,1 18 10 37 20 SE 0,0
24.09.2020 07:00:00 14,5 14,0 16 8 29 16 ESE 0,0
24.09.2020 06:00:00 14,5 13,9 10 6 36 20 SE 0,0
24.09.2020 05:00:00 14,8 14,0 14 8 44 24 SSE 0,0
24.09.2020 04:00:00 14,8 14,0 14 8 40 22 SSE 0,1
24.09.2020 03:00:00 15,0 14,4 18 10 46 25 SSE 0,2
24.09.2020 02:00:00 14,9 14,6 19 10 40 22 SSE 1,8
24.09.2020 01:00:00 14,1 14,0 13 7 27 14 ESE 0,1
24.09.2020 00:00:00 14,0 13,9 10 6 17 9 ESE 0,0
23.09.2020 23:00:00 - - - - - - - -
23.09.2020 22:00:00 - - - - - - - -
23.09.2020 21:00:00 13,8 13,5 6 4 13 7 SE 0,0
23.09.2020 20:00:00 14,3 14,0 5 3 15 8 SE 0,0
23.09.2020 19:00:00 14,6 14,3 8 4 18 10 SSE 0,0
23.09.2020 18:00:00 14,9 14,6 9 5 19 10 SE 0,0
23.09.2020 17:00:00 15,1 14,9 9 5 26 14 SSE 0,9
23.09.2020 16:00:00 15,1 14,8 10 6 21 12 SSE 0,6
23.09.2020 15:00:00 15,2 14,9 10 5 21 11 SSE 0,5
23.09.2020 14:00:00 15,1 14,6 9 5 26 14 SSE 1,4
23.09.2020 13:00:00 15,2 14,9 10 5 23 13 S 2,9
23.09.2020 12:00:00 15,2 14,7 8 4 24 13 SSE 0,0
23.09.2020 11:00:00 15,2 14,7 11 6 27 15 SSE 0,1
23.09.2020 10:00:00 15,3 15,0 9 5 19 10 SSE 0,7
23.09.2020 09:00:00 15,1 14,6 7 4 26 14 S 0,1
23.09.2020 08:00:00 15,0 14,5 8 4 18 10 SSE 0,8
23.09.2020 07:00:00 14,8 14,3 6 3 15 8 SSE 0,0
23.09.2020 06:00:00 14,4 14,1 3 2 14 7 SSE 0,0

tt = temperature
td = dewpoint
ff = wind speed
fx = gusts
dd = wind direction
rr = precipitation

Next stations